Time;durP1;ratioP1;P1;durP2;ratioP2;P2;SDS_P1;SDS_P2;PMS_P1;PMS_P2;Temp;Humidity;BMP_temperature;BMP_pressure;BME280_temperature;BME280_humidity;BME280_pressure;Samples;Min_cycle;Max_cycle;Signal;HPM_P1;HPM_P2
2023/04/03 00:03:34;;;;;;;4.00;1.55;;;;;;;4.84;63.14;98498.38;9776209;30;20076;-77
2023/04/03 00:08:55;;;;;;;4.35;1.13;;;;;;;4.85;62.81;98499.84;9775596;30;20151;-77
2023/04/03 00:14:17;;;;;;;5.90;1.17;;;;;;;4.82;63.18;98500.16;9789987;30;20053;-77
2023/04/03 00:19:38;;;;;;;3.53;1.13;;;;;;;4.84;62.75;98503.91;9775656;30;20092;-77
2023/04/03 00:25:00;;;;;;;4.20;1.30;;;;;;;4.81;62.53;98506.97;9775347;30;20068;-77
2023/04/03 00:30:22;;;;;;;5.53;1.20;;;;;;;4.84;62.25;98511.47;9789503;30;20052;-77
2023/04/03 00:35:44;;;;;;;4.43;1.20;;;;;;;4.80;62.87;98511.78;9775081;30;20076;-78
2023/04/03 00:41:05;;;;;;;3.80;1.20;;;;;;;4.79;62.11;98513.06;9774788;30;20119;-77
2023/04/03 00:46:27;;;;;;;4.95;1.25;;;;;;;4.79;62.45;98510.28;9775373;30;20081;-77
2023/04/03 00:51:49;;;;;;;4.90;1.70;;;;;;;4.69;62.29;98514.78;9789575;30;20122;-77
2023/04/03 00:57:11;;;;;;;3.38;1.50;;;;;;;4.64;62.24;98520.47;9790934;30;20057;-77
2023/04/03 01:02:32;;;;;;;5.53;1.50;;;;;;;4.48;62.34;98519.53;9791259;30;20125;-77
2023/04/03 01:07:54;;;;;;;5.95;1.75;;;;;;;4.46;61.84;98524.84;9789653;30;20190;-78
2023/04/03 01:13:24;;;;;;;5.05;1.65;;;;;;;4.40;62.07;98518.69;9773610;30;20068;-77
2023/04/03 01:18:46;;;;;;;6.18;1.55;;;;;;;4.32;61.31;98544.22;9786703;30;20067;-77
2023/04/03 01:24:27;;;;;;;3.53;1.33;;;;;;;4.11;59.74;98540.63;9787284;30;20069;-77
2023/04/03 01:29:49;;;;;;;4.30;1.50;;;;;;;3.97;59.22;98552.94;9784361;30;20057;-77
2023/04/03 01:35:11;;;;;;;4.20;1.02;;;;;;;3.83;58.42;98554.19;9773214;30;20076;-77
2023/04/03 01:40:33;;;;;;;5.82;0.90;;;;;;;3.72;58.92;98557.91;9772356;30;20390;-77
2023/04/03 01:45:54;;;;;;;4.40;1.15;;;;;;;3.60;57.81;98565.63;9786763;30;20068;-77
2023/04/03 01:51:16;;;;;;;4.93;1.05;;;;;;;3.56;58.31;98567.22;9772012;30;20085;-78
2023/04/03 01:56:38;;;;;;;3.15;0.95;;;;;;;3.45;58.12;98573.66;9786242;30;20140;-78
2023/04/03 02:02:01;;;;;;;4.80;1.07;;;;;;;3.38;58.49;98577.81;9771660;30;20123;-77
2023/04/03 02:07:23;;;;;;;4.97;1.05;;;;;;;3.24;57.30;98572.75;9772126;30;20065;-77
2023/04/03 02:12:45;;;;;;;3.45;1.05;;;;;;;3.29;57.82;98580.22;9785630;30;20064;-78
2023/04/03 02:18:06;;;;;;;3.55;0.88;;;;;;;3.13;57.07;98574.41;9785865;30;20069;-77
2023/04/03 02:23:28;;;;;;;5.65;1.05;;;;;;;3.01;57.25;98578.59;9785514;30;20449;-77
2023/04/03 02:28:49;;;;;;;3.92;1.13;;;;;;;2.84;56.44;98580.84;9769480;30;20408;-78
2023/04/03 02:34:11;;;;;;;3.88;0.80;;;;;;;2.70;57.43;98579.25;9770764;30;20500;-78
2023/04/03 02:39:32;;;;;;;2.92;0.70;;;;;;;2.50;58.14;98578.50;9785007;30;20057;-79
2023/04/03 02:44:55;;;;;;;2.60;0.70;;;;;;;2.34;57.33;98596.00;9785192;30;20120;-79
2023/04/03 02:50:25;;;;;;;3.05;0.75;;;;;;;2.16;57.55;98593.94;9773368;30;20075;-77
2023/04/03 02:55:47;;;;;;;3.63;0.90;;;;;;;1.97;57.35;98597.38;9785318;30;20190;-77
2023/04/03 03:01:12;;;;;;;2.03;0.70;;;;;;;1.86;57.76;98596.75;9784917;30;20056;-78
2023/04/03 03:06:36;;;;;;;3.75;0.90;;;;;;;1.72;58.21;98604.13;9784735;30;20136;-77
2023/04/03 03:11:58;;;;;;;4.70;0.80;;;;;;;1.65;57.92;98610.97;9784852;30;20060;-77
2023/04/03 03:17:20;;;;;;;3.97;0.60;;;;;;;1.56;57.77;98613.28;9784530;30;20060;-77
2023/04/03 03:22:44;;;;;;;4.88;0.98;;;;;;;1.49;57.97;98619.34;9770803;30;20607;-78
2023/04/03 03:28:06;;;;;;;4.38;1.02;;;;;;;1.35;58.12;98619.19;9772136;30;20068;-78
2023/04/03 03:33:28;;;;;;;3.28;0.70;;;;;;;1.28;58.19;98622.50;9763750;30;20053;-77
2023/04/03 03:38:49;;;;;;;4.53;0.75;;;;;;;1.19;58.19;98617.31;9768389;30;20053;-78
2023/04/03 03:44:11;;;;;;;2.33;0.52;;;;;;;1.04;57.94;98628.63;9790708;30;20060;-78
2023/04/03 03:49:36;;;;;;;4.20;0.98;;;;;;;0.93;58.01;98633.44;9775586;30;20060;-78
2023/04/03 03:54:57;;;;;;;2.10;0.63;;;;;;;0.86;58.88;98637.47;9788595;30;20463;-78
2023/04/03 04:00:23;;;;;;;3.58;0.68;;;;;;;0.88;58.86;98639.72;9789097;30;20566;-78
2023/04/03 04:05:49;;;;;;;4.75;1.00;;;;;;;0.87;58.92;98647.25;9788921;30;20449;-78
2023/04/03 04:11:11;;;;;;;3.63;0.95;;;;;;;0.92;58.65;98651.19;9772861;30;20065;-78
2023/04/03 04:16:35;;;;;;;6.03;0.85;;;;;;;0.78;58.69;98651.03;9787848;30;20048;-78
2023/04/03 04:22:04;;;;;;;4.47;0.90;;;;;;;0.78;58.67;98662.00;9773887;30;20057;-78
2023/04/03 04:27:27;;;;;;;5.18;1.20;;;;;;;0.73;59.17;98668.25;9769011;30;20094;-78
2023/04/03 04:32:49;;;;;;;3.65;0.90;;;;;;;0.74;58.84;98669.75;9783987;30;20173;-78
2023/04/03 04:38:17;;;;;;;3.65;0.90;;;;;;;0.72;59.08;98677.78;9773282;30;20069;-77
2023/04/03 04:44:11;;;;;;;4.63;1.15;;;;;;;0.75;59.06;98682.25;9768892;30;20076;-78
2023/04/03 04:50:02;;;;;;;3.95;1.15;;;;;;;0.83;59.14;98683.22;9785417;30;20092;-78
2023/04/03 04:55:25;;;;;;;2.80;1.10;;;;;;;0.96;58.88;98679.91;9762272;30;20068;-79
2023/04/03 05:01:03;;;;;;;4.55;1.55;;;;;;;1.12;58.88;98686.59;9767913;30;20412;-79
2023/04/03 05:06:59;;;;;;;4.05;1.10;;;;;;;1.49;59.00;98685.38;9776315;30;20064;-79
2023/04/03 05:13:02;;;;;;;6.53;1.67;;;;;;;1.86;58.62;98687.63;9801362;30;20069;-79
2023/04/03 05:19:26;;;;;;;4.20;1.08;;;;;;;2.19;57.86;98679.03;9791757;30;20295;-79
2023/04/03 05:25:49;;;;;;;5.20;1.38;;;;;;;2.84;56.49;98693.91;9801210;30;20060;-79
2023/04/03 05:32:14;;;;;;;5.07;1.48;;;;;;;3.53;58.15;98698.75;9800914;30;20485;-79
2023/04/03 05:38:04;;;;;;;5.32;1.60;;;;;;;4.30;57.31;98712.59;9796571;30;20052;-77
2023/04/03 05:43:28;;;;;;;6.15;1.80;;;;;;;5.34;55.65;98709.59;9773446;30;20386;-77
2023/04/03 05:48:51;;;;;;;5.32;1.63;;;;;;;6.52;54.90;98713.13;9774780;30;20118;-77
2023/04/03 05:54:22;;;;;;;5.82;1.83;;;;;;;9.74;56.32;98726.72;9773905;30;20083;-77
2023/04/03 05:59:46;;;;;;;4.72;1.50;;;;;;;17.32;48.07;98722.59;9774867;30;20061;-77
2023/04/03 06:05:37;;;;;;;7.85;1.60;;;;;;;22.72;34.24;98736.13;9759946;30;20147;-78
2023/04/03 06:11:02;;;;;;;4.60;1.25;;;;;;;24.45;29.79;98758.81;9735713;30;20057;-78
2023/04/03 06:16:24;;;;;;;4.03;1.27;;;;;;;24.78;24.21;98752.59;9745230;30;20072;-78
2023/04/03 06:21:47;;;;;;;3.07;1.30;;;;;;;23.54;25.42;98754.56;9744879;30;20069;-78
2023/04/03 06:27:10;;;;;;;3.78;1.10;;;;;;;22.73;24.08;98751.78;9733030;30;20091;-78
2023/04/03 06:32:32;;;;;;;2.97;1.20;;;;;;;16.20;25.74;98760.34;9747201;30;20428;-81
2023/04/03 06:37:56;;;;;;;3.60;1.30;;;;;;;11.85;28.46;98761.47;9737189;30;20071;-77
2023/04/03 06:43:17;;;;;;;3.70;1.10;;;;;;;9.71;31.73;98775.25;10673114;24;20134;-78
2023/04/03 06:48:38;;;;;;;3.05;1.02;;;;;;;16.77;32.57;98783.53;9760372;30;20114;-78
2023/04/03 06:54:00;;;;;;;7.28;1.20;;;;;;;26.15;24.57;98790.31;9799481;30;20069;-78
2023/04/03 06:59:21;;;;;;;3.95;1.00;;;;;;;31.18;17.49;98794.44;9757160;30;20148;-78
2023/04/03 07:04:43;;;;;;;2.25;0.80;;;;;;;33.08;15.95;98806.41;9735633;30;20061;-78
2023/04/03 07:10:06;;;;;;;2.30;0.90;;;;;;;33.84;11.90;98800.81;9734455;30;20192;-78
2023/04/03 07:15:28;;;;;;;3.80;1.10;;;;;;;30.00;12.96;98813.28;9736766;30;20061;-78
2023/04/03 07:20:50;;;;;;;4.07;1.10;;;;;;;22.22;15.08;98803.97;9753836;30;20505;-77
2023/04/03 07:26:11;;;;;;;3.60;1.20;;;;;;;24.15;14.57;98804.97;9741989;30;20057;-78
2023/04/03 07:31:33;;;;;;;3.60;1.45;;;;;;;19.15;16.81;98805.91;9742369;30;20511;-78
2023/04/03 07:36:56;;;;;;;3.63;1.45;;;;;;;24.95;18.31;98810.88;9740630;30;20520;-78
2023/04/03 07:42:17;;;;;;;3.83;1.17;;;;;;;31.53;12.97;98814.69;9753963;30;20472;-78
2023/04/03 07:47:39;;;;;;;3.10;1.10;;;;;;;32.17;11.53;98816.84;9741419;30;20071;-78
2023/04/03 07:53:01;;;;;;;4.45;1.23;;;;;;;32.78;10.50;98810.16;9741310;30;20072;-80
2023/04/03 07:58:22;;;;;;;1.80;0.85;;;;;;;36.10;9.69;98803.66;9741825;30;20068;-80
2023/04/03 08:03:44;;;;;;;4.07;1.25;;;;;;;31.89;9.97;98808.22;9738404;30;20057;-80
2023/04/03 08:09:05;;;;;;;3.83;1.00;;;;;;;29.49;11.18;98821.53;9752225;30;20528;-80
2023/04/03 08:14:26;;;;;;;3.75;1.33;;;;;;;23.30;12.89;98807.91;9728733;30;20092;-78
2023/04/03 08:19:47;;;;;;;2.53;0.95;;;;;;;18.78;15.26;98808.22;9741181;30;20413;-78
2023/04/03 08:25:08;;;;;;;3.00;1.60;;;;;;;18.71;17.51;98804.31;9740603;30;20061;-78
2023/04/03 08:30:30;;;;;;;6.23;1.60;;;;;;;21.51;15.74;98795.44;9751373;30;20049;-78
2023/04/03 08:35:51;;;;;;;4.50;1.38;;;;;;;28.77;14.05;98814.97;9738621;30;20061;-80
2023/04/03 08:41:15;;;;;;;3.10;1.00;;;;;;;33.15;10.25;98812.88;9752432;30;20080;-80
2023/04/03 08:47:00;;;;;;;2.95;1.35;;;;;;;32.90;8.73;98809.41;9753008;30;20523;-80
2023/04/03 08:52:35;;;;;;;3.80;1.50;;;;;;;28.85;11.03;98799.97;9752461;30;20053;-78
2023/04/03 08:58:18;;;;;;;2.97;1.20;;;;;;;30.96;10.55;98803.72;9740034;30;20053;-80
2023/04/03 09:03:42;;;;;;;2.58;0.88;;;;;;;36.20;8.47;98815.09;9739902;30;20064;-79
2023/04/03 09:09:10;;;;;;;2.38;0.70;;;;;;;38.64;6.62;98814.50;9751615;30;20053;-80
2023/04/03 09:15:11;;;;;;;2.43;0.67;;;;;;;38.19;4.94;98804.06;9751611;30;20111;-79
2023/04/03 09:20:38;;;;;;;2.42;0.60;;;;;;;38.91;5.20;98829.06;9739234;30;20072;-80
2023/04/03 09:26:04;;;;;;;;;;;;;;;34.46;6.62;98821.25;9751592;30;20061;-79
2023/04/03 09:31:29;;;;;;;2.53;0.60;;;;;;;36.55;6.05;98829.69;9749735;30;19926;-79
2023/04/03 09:36:52;;;;;;;2.05;0.60;;;;;;;32.21;7.06;98819.00;9747416;30;20053;-80
2023/04/03 09:42:21;;;;;;;2.03;0.90;;;;;;;30.65;8.25;98834.59;9751959;30;20057;-85
2023/04/03 09:47:44;;;;;;;2.33;0.80;;;;;;;33.72;7.23;98830.59;9750922;30;20471;-85
2023/04/03 09:53:07;;;;;;;2.58;0.68;;;;;;;37.58;6.51;98826.00;9750277;30;20064;-93
2023/04/03 09:58:42;;;;;;;1.88;0.60;;;;;;;36.45;6.24;98832.78;9754226;30;20056;-89
2023/04/03 10:04:12;;;;;;;1.63;0.50;;;;;;;32.70;7.48;98827.53;9751519;30;20118;-90
2023/04/03 10:09:34;;;;;;;3.58;1.15;;;;;;;32.42;7.33;98826.19;9762652;30;20061;-94
2023/04/03 10:15:00;;;;;;;2.08;0.60;;;;;;;34.88;6.40;98825.81;9749442;30;20072;-80
2023/04/03 10:20:33;;;;;;;1.88;0.65;;;;;;;31.47;6.54;98832.72;9749892;30;20061;-80
2023/04/03 10:26:32;;;;;;;3.10;0.68;;;;;;;25.79;9.28;98830.97;9761443;30;20523;-80
2023/04/03 10:32:22;;;;;;;1.83;0.80;;;;;;;21.13;11.61;98815.88;9773219;30;20512;-80
2023/04/03 10:38:09;;;;;;;3.17;0.90;;;;;;;18.06;14.09;98811.41;9773124;30;20057;-79
2023/04/03 10:43:49;;;;;;;2.00;0.82;;;;;;;16.39;15.51;98813.66;9726398;30;20148;-79
2023/04/03 10:49:29;;;;;;;2.33;0.63;;;;;;;15.63;16.46;98822.28;9749479;30;20516;-76
2023/04/03 10:55:18;;;;;;;3.38;0.60;;;;;;;18.47;15.79;98803.75;9767225;30;20527;-75
2023/04/03 11:00:45;;;;;;;4.45;0.70;;;;;;;15.54;16.60;98808.22;9753775;30;20056;-75
2023/04/03 11:06:09;;;;;;;2.70;1.02;;;;;;;13.80;17.79;98798.53;9740645;30;20049;-76
2023/04/03 11:11:35;;;;;;;4.10;0.90;;;;;;;14.07;18.73;98803.94;9752977;30;20053;-76
2023/04/03 11:17:18;;;;;;;2.05;0.70;;;;;;;14.80;19.40;98805.47;9742140;30;20049;-76
2023/04/03 11:23:04;;;;;;;3.55;1.00;;;;;;;15.20;19.52;98792.66;9754330;30;20532;-76
2023/04/03 11:28:26;;;;;;;3.47;0.70;;;;;;;14.41;19.09;98802.81;9732521;30;20524;-77
2023/04/03 11:34:08;;;;;;;3.45;0.90;;;;;;;13.15;20.33;98794.53;9739865;30;20132;-76
2023/04/03 11:39:32;;;;;;;1.92;0.63;;;;;;;14.44;20.08;98792.44;9742699;30;20114;-76
2023/04/03 11:45:22;;;;;;;3.17;0.80;;;;;;;14.28;20.23;98794.88;9753198;30;20076;-76
2023/04/03 11:50:44;;;;;;;2.63;0.80;;;;;;;14.15;20.14;98776.44;9769073;30;20061;-76
2023/04/03 11:56:41;;;;;;;3.28;1.00;;;;;;;15.17;19.93;98772.84;9754237;30;20053;-75
2023/04/03 12:02:50;;;;;;;2.10;0.60;;;;;;;15.06;19.23;98779.16;9703003;30;20429;-77
2023/04/03 12:08:36;;;;;;;2.45;0.68;;;;;;;14.27;19.30;98763.25;9706514;30;20065;-76
2023/04/03 12:13:58;;;;;;;3.35;0.82;;;;;;;12.96;20.17;98762.94;9797746;30;20059;-75
2023/04/03 12:19:34;;;;;;;2.83;0.60;;;;;;;12.98;21.13;98751.88;9808157;30;20114;-76
2023/04/03 12:24:58;;;;;;;2.58;0.43;;;;;;;13.56;20.56;98749.09;9783732;30;20057;-76
2023/04/03 12:30:22;;;;;;;2.78;0.60;;;;;;;13.44;20.22;98755.31;9779493;30;20064;-76
2023/04/03 12:36:05;;;;;;;2.22;0.70;;;;;;;13.07;20.50;98751.13;9783025;30;20055;-76
2023/04/03 12:41:39;;;;;;;2.05;0.50;;;;;;;12.25;21.65;98752.69;9799803;30;20092;-76
2023/04/03 12:47:00;;;;;;;2.42;0.63;;;;;;;12.00;22.09;98752.88;9750973;30;20061;-76
2023/04/03 12:52:31;;;;;;;5.32;0.95;;;;;;;11.62;23.18;98740.13;9762212;30;20061;-76
2023/04/03 12:57:52;;;;;;;1.98;0.75;;;;;;;11.81;22.57;98744.38;9788362;30;20057;-76
2023/04/03 13:03:23;;;;;;;2.85;0.70;;;;;;;11.61;22.73;98733.06;9788964;30;20064;-76
2023/04/03 13:08:56;;;;;;;3.67;0.68;;;;;;;11.31;23.66;98742.56;9767080;30;20066;-76
2023/04/03 13:14:22;;;;;;;5.50;0.95;;;;;;;11.16;23.99;98751.09;9788335;30;20497;-77
2023/04/03 13:19:45;;;;;;;2.60;0.52;;;;;;;11.29;24.13;98736.81;9786721;30;20094;-76
2023/04/03 13:25:08;;;;;;;4.30;0.80;;;;;;;11.57;23.77;98729.91;9798798;30;20398;-77
2023/04/03 13:30:34;;;;;;;2.60;0.63;;;;;;;11.62;23.90;98740.13;9798524;30;20057;-76
2023/04/03 13:36:02;;;;;;;2.75;0.52;;;;;;;10.97;24.04;98729.31;9799437;30;20083;-76
2023/04/03 13:41:31;;;;;;;2.00;0.60;;;;;;;10.64;24.52;98744.72;9779502;30;20057;-75
2023/04/03 13:47:01;;;;;;;3.08;0.82;;;;;;;10.30;25.27;98738.47;9800578;30;20065;-75
2023/04/03 13:52:36;;;;;;;3.25;0.60;;;;;;;10.08;25.58;98735.84;9787095;30;20056;-75
2023/04/03 14:05:13;;;;;;;1.77;0.50;;;;;;;10.25;25.29;98724.78;9809917;30;20076;-81
2023/04/03 14:10:34;;;;;;;2.10;0.50;;;;;;;10.48;24.73;98739.28;10958952;24;20423;-77
2023/04/03 14:22:17;;;;;;;1.90;0.60;;;;;;;9.58;25.65;98730.19;11883456;24;20054;-78
2023/04/03 14:27:51;;;;;;;2.67;0.40;;;;;;;9.32;25.93;98723.03;9829755;30;20044;-82
2023/04/03 15:07:50;;;;;;;2.63;0.60;;;;;;;8.27;27.79;98729.69;12825488;22;20108;-80
2023/04/03 15:13:12;;;;;;;1.30;0.63;;;;;;;8.14;28.17;98729.88;12812770;23;20004;-82
2023/04/03 15:18:37;;;;;;;2.83;0.80;;;;;;;8.34;28.06;98736.56;12825130;23;20028;-80
2023/04/03 15:24:04;;;;;;;2.42;0.63;;;;;;;8.40;27.90;98728.06;12808994;23;20039;-80
2023/04/03 15:29:25;;;;;;;3.47;0.73;;;;;;;8.53;27.71;98736.94;12802573;23;20052;-80
2023/04/03 15:34:47;;;;;;;3.72;0.68;;;;;;;8.55;28.19;98741.97;12801526;23;20012;-77
2023/04/03 15:40:10;;;;;;;3.83;0.85;;;;;;;8.39;28.21;98743.25;12808409;23;20013;-82
2023/04/03 15:46:09;;;;;;;4.18;1.10;;;;;;;7.99;28.04;98752.81;12844971;23;20024;-81
2023/04/03 15:51:33;;;;;;;5.57;1.45;;;;;;;7.64;29.00;98754.44;12814303;23;20022;-78
2023/04/03 15:56:56;;;;;;;4.93;0.80;;;;;;;7.52;28.95;98750.47;12834712;23;20436;-79
2023/04/03 16:02:27;;;;;;;4.60;0.60;;;;;;;7.29;29.03;98755.94;12851233;23;20016;-79
2023/04/03 16:08:56;;;;;;;4.68;1.00;;;;;;;7.24;29.15;98748.53;12865981;23;20028;31
2023/04/03 16:14:17;;;;;;;1.70;0.50;;;;;;;7.10;28.87;98750.66;12663503;23;20024;-78
2023/04/03 16:19:38;;;;;;;2.22;0.90;;;;;;;7.21;29.38;98749.59;12683524;23;20018;-78
2023/04/03 16:25:00;;;;;;;2.65;0.65;;;;;;;7.00;29.71;98754.50;12626876;23;20022;-77
2023/04/03 16:30:21;;;;;;;2.03;0.77;;;;;;;6.92;30.13;98751.66;12661592;23;20014;-76
2023/04/03 16:35:43;;;;;;;3.35;0.73;;;;;;;6.65;29.95;98756.66;12680955;23;20014;-77
2023/04/03 16:41:05;;;;;;;4.45;1.05;;;;;;;6.50;30.50;98765.63;12661109;23;20070;-77
2023/04/03 16:46:26;;;;;;;1.83;0.70;;;;;;;6.27;30.63;98773.00;12677789;23;20037;-82
2023/04/03 16:51:56;;;;;;;2.13;0.60;;;;;;;6.25;30.46;98770.78;12690592;23;20018;-80
2023/04/03 16:57:24;;;;;;;4.90;0.93;;;;;;;6.21;30.87;98764.84;12684031;23;20025;-81
2023/04/03 17:02:51;;;;;;;3.25;0.80;;;;;;;5.95;31.61;98785.09;12676115;23;20013;-82
2023/04/03 17:08:27;;;;;;;2.38;0.80;;;;;;;5.89;31.63;98770.59;12757062;23;20444;-78
2023/04/03 17:13:55;;;;;;;3.42;0.80;;;;;;;5.81;32.68;98771.78;12719819;23;20029;-83
2023/04/03 17:19:44;;;;;;;3.03;0.75;;;;;;;5.80;32.09;98782.13;12773883;23;20029;-79
2023/04/03 17:25:05;;;;;;;4.32;1.00;;;;;;;5.62;31.94;98781.00;12734051;23;20013;-77
2023/04/03 17:30:27;;;;;;;3.47;0.70;;;;;;;5.55;33.05;98780.91;12701058;23;20338;-77
2023/04/03 17:35:48;;;;;;;2.35;0.77;;;;;;;5.61;32.40;98782.28;12724505;23;20021;-79
2023/04/03 17:41:18;;;;;;;3.30;0.90;;;;;;;5.52;32.44;98777.19;12743051;23;20001;-84
2023/04/03 17:48:06;;;;;;;3.42;1.05;;;;;;;5.38;32.81;98779.22;12697843;23;20006;-82
2023/04/03 18:06:16;;;;;;;2.83;0.98;;;;;;;5.30;33.37;98783.19;12749801;23;19924;-82
2023/04/03 18:11:37;;;;;;;3.95;1.20;;;;;;;5.21;33.43;98775.31;12675587;23;20014;-81
2023/04/03 18:16:59;;;;;;;3.63;1.02;;;;;;;5.12;33.78;98787.56;12718088;23;20024;-79
2023/04/03 18:22:20;;;;;;;4.00;1.35;;;;;;;5.16;33.55;98793.53;12722250;23;20051;-78
2023/04/03 18:27:42;;;;;;;3.22;1.10;;;;;;;5.09;33.74;98794.91;12731772;23;20458;-82
2023/04/03 18:33:03;;;;;;;2.85;1.10;;;;;;;5.04;33.84;98803.31;12721530;23;20020;-82
2023/04/03 18:38:24;;;;;;;3.05;0.98;;;;;;;4.99;34.10;98796.59;12702451;23;20022;-82
2023/04/03 18:43:45;;;;;;;3.25;0.95;;;;;;;4.99;34.44;98806.94;12753067;23;20012;-82
2023/04/03 18:49:06;;;;;;;5.05;1.20;;;;;;;5.00;35.54;98800.13;12731914;23;20002;-82
2023/04/03 18:54:36;;;;;;;3.53;1.50;;;;;;;4.96;35.09;98802.47;12659636;23;20056;-82
2023/04/03 18:59:57;;;;;;;3.83;1.50;;;;;;;4.96;34.59;98808.00;12748023;23;20024;-81
2023/04/03 19:05:19;;;;;;;4.30;1.77;;;;;;;4.92;34.83;98810.31;12664471;23;20020;-82
2023/04/03 19:10:40;;;;;;;5.07;1.40;;;;;;;4.86;35.41;98813.22;12691537;23;20026;-83
2023/04/03 19:22:36;;;;;;;3.80;1.38;;;;;;;4.76;35.59;98807.34;12777475;23;20026;-78
2023/04/03 19:27:58;;;;;;;6.07;1.67;;;;;;;4.69;35.40;98813.50;12718370;23;20028;-80
2023/04/03 19:33:20;;;;;;;5.65;1.60;;;;;;;4.55;35.88;98814.75;12731627;23;20048;-80
2023/04/03 19:38:41;;;;;;;5.85;2.67;;;;;;;4.48;36.17;98816.09;12734906;23;20105;-80
2023/04/03 19:44:03;;;;;;;5.35;2.17;;;;;;;4.49;36.31;98811.31;12725965;23;20017;-79
2023/04/03 19:49:24;;;;;;;7.13;2.20;;;;;;;4.48;36.37;98816.09;12731873;23;20066;-81
2023/04/03 19:54:47;;;;;;;3.13;1.50;;;;;;;4.35;37.03;98826.41;12728680;23;20028;-76
2023/04/03 20:00:12;;;;;;;5.03;1.52;;;;;;;4.23;38.06;98821.00;12744022;23;20027;-79
2023/04/03 20:05:33;;;;;;;4.85;1.77;;;;;;;4.18;37.70;98826.66;12646997;23;20018;-79
2023/04/03 20:10:54;;;;;;;4.38;1.50;;;;;;;4.18;37.75;98821.84;12665434;23;20025;-79
2023/04/03 20:16:16;;;;;;;4.80;1.77;;;;;;;4.17;38.17;98816.88;12664360;23;20014;-79
2023/04/03 20:21:37;;;;;;;5.63;1.73;;;;;;;4.15;37.93;98817.38;12651106;23;20037;-78
2023/04/03 20:26:58;;;;;;;4.40;1.52;;;;;;;4.12;38.45;98807.38;12674331;23;20833;-81
2023/04/03 20:32:20;;;;;;;4.25;1.88;;;;;;;4.17;38.68;98814.09;12623329;23;20337;-81
2023/04/03 20:37:42;;;;;;;3.63;1.48;;;;;;;4.23;38.17;98812.72;12622363;23;20014;-80
2023/04/03 20:43:04;;;;;;;5.97;1.38;;;;;;;4.31;38.47;98807.34;12645808;23;20049;-80
2023/04/03 20:48:29;;;;;;;4.88;1.42;;;;;;;4.32;38.78;98808.81;12627909;23;20014;-80
2023/04/03 20:53:53;;;;;;;5.35;1.50;;;;;;;4.36;38.80;98803.00;12645383;23;20053;-79
2023/04/03 20:59:15;;;;;;;6.78;1.80;;;;;;;4.31;39.01;98808.06;12670009;23;20475;-78
2023/04/03 21:04:41;;;;;;;4.90;1.85;;;;;;;4.29;39.09;98805.09;12651626;23;20026;-78
2023/04/03 21:10:41;;;;;;;4.85;1.63;;;;;;;4.27;39.50;98782.78;12665977;23;20024;-78
2023/04/03 21:16:10;;;;;;;6.00;2.28;;;;;;;4.23;38.96;98800.91;12644233;23;20076;-79
2023/04/03 21:21:38;;;;;;;6.75;1.92;;;;;;;4.13;39.52;98797.81;12667184;23;20352;-79
2023/04/03 21:27:07;;;;;;;4.47;1.58;;;;;;;4.04;39.31;98798.19;12625045;23;20026;-79
2023/04/03 21:32:29;;;;;;;9.32;2.25;;;;;;;4.00;39.41;98800.53;12641674;23;20033;-78
2023/04/03 21:37:50;;;;;;;4.38;1.73;;;;;;;3.82;39.88;98795.75;12667971;23;20042;-79
2023/04/03 21:43:11;;;;;;;4.45;1.70;;;;;;;3.89;40.06;98800.69;12659199;23;20021;-80
2023/04/03 21:48:32;;;;;;;5.75;2.00;;;;;;;3.81;40.54;98799.78;12658676;23;20022;-79
2023/04/03 21:53:54;;;;;;;7.47;1.55;;;;;;;3.92;40.50;98799.63;12619344;23;20449;-79
2023/04/03 21:59:15;;;;;;;3.80;1.48;;;;;;;3.92;39.95;98805.91;12679512;23;20014;-79
2023/04/03 22:04:36;;;;;;;6.57;1.88;;;;;;;3.93;41.40;98801.13;12647389;23;20025;-79
2023/04/03 22:09:58;;;;;;;4.25;2.00;;;;;;;4.01;41.07;98796.50;12639678;23;20062;-79
2023/04/03 22:15:18;;;;;;;5.93;2.00;;;;;;;4.04;40.48;98798.19;12659152;23;20438;-79
2023/04/03 22:20:41;;;;;;;6.35;1.92;;;;;;;4.08;40.86;98795.88;12638933;23;20025;-79
2023/04/03 22:26:06;;;;;;;5.53;1.67;;;;;;;4.05;40.96;98796.91;12639196;23;20069;-79
2023/04/03 22:31:27;;;;;;;4.35;1.98;;;;;;;4.01;40.54;98802.00;12635910;23;20021;-79
2023/04/03 22:36:48;;;;;;;4.60;1.50;;;;;;;4.01;40.59;98802.75;12700250;23;20445;-80
2023/04/03 22:42:09;;;;;;;4.20;1.67;;;;;;;3.97;41.47;98796.81;12658592;23;20029;-79
2023/04/03 22:47:30;;;;;;;4.63;1.40;;;;;;;3.97;40.99;98798.81;12678216;23;20038;-80
2023/04/03 22:52:51;;;;;;;4.15;1.42;;;;;;;3.95;41.24;98790.28;12661059;23;20033;-79
2023/04/03 22:58:12;;;;;;;3.55;1.40;;;;;;;3.95;40.97;98795.81;12682123;23;20084;-79
2023/04/03 23:03:34;;;;;;;4.50;1.60;;;;;;;3.90;41.42;98789.13;12655575;23;20024;-79
2023/04/03 23:08:55;;;;;;;4.40;1.35;;;;;;;3.90;41.18;98780.81;12642678;23;20053;-79
2023/04/03 23:14:16;;;;;;;6.70;1.67;;;;;;;3.92;41.87;98783.06;12621188;23;20069;-79
2023/04/03 23:19:37;;;;;;;4.15;1.80;;;;;;;3.90;41.66;98771.78;12662423;23;20049;-80
2023/04/03 23:24:58;;;;;;;5.95;1.95;;;;;;;3.87;41.52;98762.53;12661564;23;20013;-79
2023/04/03 23:30:20;;;;;;;4.25;1.75;;;;;;;3.85;41.77;98767.09;12667960;23;20014;-79
2023/04/03 23:35:45;;;;;;;4.57;2.00;;;;;;;3.77;41.64;98760.69;12663804;23;20073;-79
2023/04/03 23:41:06;;;;;;;5.03;2.22;;;;;;;3.70;42.20;98756.50;12683042;23;20017;-79
2023/04/03 23:46:27;;;;;;;6.07;1.95;;;;;;;3.70;42.25;98762.03;12641361;23;20018;-79
2023/04/03 23:51:48;;;;;;;5.03;1.73;;;;;;;3.61;42.46;98743.84;12642200;23;20014;-79
2023/04/03 23:57:09;;;;;;;4.13;1.55;;;;;;;3.61;42.21;98737.56;12662480;23;20018;-79
